ADDS METAR Data INFO
IDs: Format: Raw Decoded Include TAF

Data at: 0130 UTC 20 Feb 2018

K7BM 200112Z AUTO 34004KT 2SM -SN BKN008 OVC014 00/M02 A2932 RMK AO2 VIS 1 1/4V4
K7BM 200051Z AUTO 18013G22KT 070V210 1 1/2SM -SN OVC006 00/M03 A2934 RMK AO2
K7BM 200028Z AUTO 25004G24KT 3/4SM -SN OVC006 00/M01 A2932 RMK AO2
K7BM 200012Z AUTO 31005G18KT 3SM -SN SCT005 BKN019 OVC027 00/M02 A2932 RMK AO2
K7BM 192348Z AUTO 13005KT 1/2SM SN OVC005 00/M01 A2931 RMK AO2
K7BM 192330Z AUTO 17008KT 1/2SM SN OVC005 00/M01 A2932 RMK AO2
K7BM 192312Z AUTO 15010G18KT 130V220 3/4SM -SN OVC007 00/M02 A2932 RMK AO2
K7BM 192253Z AUTO 20006KT 120V240 3/4SM -SN OVC005 00/M01 A2932 RMK AO2
K7BM 192229Z AUTO 13009G27KT 110V180 2SM -SN SCT007 OVC015 01/M02 A2932 RMK AO2
K7BM 192212Z AUTO 11004KT 3SM -SN SCT006 BKN015 OVC024 00/M02 A2932 RMK AO2
K7BM 192153Z AUTO 18006G19KT 160V230 1SM -SN OVC006 01/M03 A2932 RMK AO2
K7BM 192129Z AUTO 26005KT 1/2SM -SN OVC004 00/M01 A2935 RMK AO2
K7BM 192111Z AUTO 23016G26KT 170V240 1SM -SN BKN006 OVC012 01/M03 A2934 RMK AO2 VIS 1/2V4
K7BM 192052Z AUTO 18007G30KT 110V230 10SM SCT025 BKN037 OVC047 03/M08 A2932 RMK AO2
K7BM 192029Z AUTO 19016G35KT 130V230 10SM SCT026 BKN045 OVC065 03/M08 A2933 RMK AO2
K7BM 192011Z AUTO 22004G17KT 7SM SCT016 BKN035 OVC043 03/M07 A2936 RMK AO2
K7BM 191952Z AUTO 22007G18KT 7SM -SN SCT015 BKN021 OVC029 02/M06 A2936 RMK AO2
K7BM 191928Z AUTO 28003G18KT 4SM -SN BKN019 OVC024 02/M05 A2937 RMK AO2
K7BM 191911Z AUTO 28004KT 5SM -SN BKN020 BKN026 OVC035 02/M06 A2938 RMK AO2
K7BM 191848Z AUTO 18007KT 170V240 10SM SCT012 BKN028 OVC037 02/M06 A2939 RMK AO2
K7BM 191830Z AUTO 19003KT 3SM -SN BKN012 BKN017 OVC027 01/M03 A2941 RMK AO2
K7BM 191812Z AUTO 35005KT 1 1/2SM -SN BKN010 OVC018 00/M03 A2943 RMK AO2
K7BM 191750Z AUTO 00000KT 5SM -SN SCT006 BKN020 OVC024 00/M03 A2944 RMK AO2
K7BM 191728Z AUTO 25006G21KT 1 1/2SM -SN BKN008 OVC012 01/M05 A2945 RMK AO2
K7BM 191712Z AUTO 21021G32KT 2 1/2SM -SN SCT012 BKN025 OVC038 01/M08 A2945 RMK AO2 VIS 2V5
K7BM 191648Z AUTO 21015G30KT 160V240 10SM SCT038 SCT047 OVC050 02/M12 A2944 RMK AO2
K7BM 191630Z AUTO 18023G35KT 160V230 10SM SCT045 BKN050 OVC070 02/M12 A2943 RMK AO2
K7BM 191612Z AUTO 20015G23KT 10SM SCT043 SCT050 BKN070 02/M12 A2945 RMK AO2
K7BM 191553Z AUTO 18016G32KT 10SM SCT040 SCT046 BKN050 02/M12 A2946 RMK AO2
K7BM 191529Z AUTO 28006G39KT 10SM SCT028 BKN043 OVC050 02/M10 A2948 RMK AO2
K7BM 191512Z AUTO 24008G27KT 220V310 7SM -SN SCT025 BKN031 OVC047 02/M08 A2950 RMK AO2
K7BM 191452Z AUTO 23013G24KT 190V290 10SM -SN SCT023 BKN030 OVC038 02/M08 A2949 RMK AO2
K7BM 191428Z AUTO 21016G28KT 170V250 10SM SCT018 BKN036 OVC042 01/M08 A2948 RMK AO2
K7BM 191412Z AUTO 30006G14KT 7SM -SN SCT016 BKN028 OVC036 01/M06 A2950 RMK AO2
K7BM 191352Z AUTO 25005G16KT 7SM -SN SCT015 BKN028 OVC048 01/M07 A2949 RMK AO2
K7BM 191329Z AUTO 29006G16KT 260V340 10SM BKN035 OVC047 01/M08 A2949 RMK AO2
K7BM 191312Z AUTO 27006G16KT 200V310 10SM SCT029 BKN036 OVC048 01/M08 A2950 RMK AO2
K7BM 191252Z AUTO 24006KT 10SM SCT029 BKN036 OVC049 01/M07 A2951 RMK AO2
K7BM 191228Z AUTO 25007KT 10SM SCT028 BKN035 OVC042 01/M07 A2952 RMK AO2
K7BM 191211Z AUTO 20010KT 10SM BKN029 BKN036 OVC046 01/M07 A2953 RMK AO2
K7BM 191151Z AUTO 24007KT 10SM SCT029 BKN048 OVC060 01/M07 A2953 RMK AO2
K7BM 191129Z AUTO 24009G17KT 200V270 10SM SCT028 BKN050 OVC060 02/M07 A2954 RMK AO2
K7BM 191112Z AUTO 25010G22KT 200V280 10SM BKN029 BKN034 OVC043 02/M07 A2953 RMK AO2
K7BM 191051Z AUTO 22008G15KT 10SM SCT027 BKN035 OVC047 02/M07 A2954 RMK AO2
K7BM 191033Z AUTO 24012G17KT 10SM SCT035 BKN044 OVC055 02/M07 A2955 RMK AO2
K7BM 191011Z AUTO 25016G26KT 220V280 10SM SCT036 SCT043 BKN050 02/M08 A2955 RMK AO2
K7BM 190952Z AUTO 25010G22KT 220V290 10SM SCT038 SCT050 SCT060 02/M09 A2954 RMK AO2
K7BM 190929Z AUTO 27010G19KT 220V320 10SM SCT055 02/M09 A2954 RMK AO2
K7BM 190912Z AUTO 25010G16KT 220V280 10SM SCT055 SCT110 02/M09 A2954 RMK AO2
K7BM 190852Z AUTO 30004G14KT 10SM SCT110 02/M09 A2954 RMK AO2
K7BM 190829Z AUTO 24013G23KT 220V280 10SM SCT055 BKN110 03/M09 A2955 RMK AO2
K7BM 190812Z AUTO 25005G17KT 10SM BKN100 02/M10 A2955 RMK AO2
K7BM 190752Z AUTO 25010G15KT 10SM CLR 02/M10 A2955 RMK AO2
K7BM 190729Z AUTO 24003KT 10SM CLR 02/M09 A2957 RMK AO2
K7BM 190711Z AUTO 24008G15KT 210V280 10SM CLR 02/M09 A2957 RMK AO2
K7BM 190648Z AUTO 26015G26KT 230V300 10SM CLR 02/M09 A2957 RMK AO2
K7BM 190630Z AUTO 26018G29KT 10SM CLR 02/M09 A2958 RMK AO2
K7BM 190612Z AUTO 25015G27KT 10SM CLR 03/M09 A2958 RMK AO2
K7BM 190552Z AUTO 27013G22KT 230V290 10SM CLR 03/M10 A2960 RMK AO2
K7BM 190530Z AUTO 26009G22KT 220V290 10SM CLR 03/M10 A2960 RMK AO2
K7BM 190512Z AUTO 24009G16KT 10SM CLR 02/M10 A2961 RMK AO2
K7BM 190453Z AUTO 22009G20KT 10SM CLR 02/M10 A2962 RMK AO2
K7BM 190430Z AUTO 24012G27KT 220V300 10SM CLR 03/M11 A2962 RMK AO2
K7BM 190412Z AUTO 26017G24KT 230V290 10SM CLR 03/M11 A2961 RMK AO2
K7BM 190352Z AUTO 28006G21KT 190V310 10SM CLR 03/M11 A2962 RMK AO2
K7BM 190329Z AUTO 26016G22KT 240V300 10SM CLR 03/M11 A2962 RMK AO2
K7BM 190311Z AUTO 27005G24KT 240V330 10SM CLR 03/M11 A2962 RMK AO2
K7BM 190253Z AUTO 26016G25KT 220V280 10SM CLR 03/M11 A2962 RMK AO2
K7BM 190229Z AUTO 25017G26KT 10SM CLR 04/M13 A2963 RMK AO2
K7BM 190211Z AUTO 26016G35KT 220V300 10SM CLR 05/M14 A2961 RMK AO2
K7BM 190148Z AUTO 25022G39KT 10SM CLR 05/M15 A2961 RMK AO2
K7BM 190130Z AUTO 26016G36KT 230V310 10SM CLR 05/M15 A2961 RMK AO2
K7BM 190112Z AUTO 26025G42KT 10SM CLR 05/M16 A2960 RMK AO2
K7BM 190052Z AUTO 27029G45KT 10SM CLR 06/M16 A2958 RMK AO2
K7BM 190029Z AUTO 27030G47KT 10SM CLR 06/M18 A2957 RMK AO2
K7BM 190011Z AUTO 28030G51KT 10SM CLR 06/M18 A2956 RMK AO2
K7BM 182353Z AUTO 27032G52KT 10SM CLR 07/M19 A2956 RMK AO2
K7BM 182329Z AUTO 26034G57KT 10SM CLR 07/M20 A2956 RMK AO2
K7BM 182311Z AUTO 26035G62KT 10SM CLR 07/M20 A2955 RMK AO2
K7BM 182251Z AUTO 26040G56KT 10SM CLR 07/M20 A2957 RMK AO2
K7BM 182229Z AUTO 25037G60KT 10SM CLR 07/M18 A2958 RMK AO2
K7BM 182212Z AUTO 25034G58KT 10SM CLR 07/M17 A2958 RMK AO2
K7BM 182152Z AUTO 25036G50KT 10SM CLR 07/M17 A2957 RMK AO2
K7BM 182129Z AUTO 26033G55KT 10SM CLR 07/M18 A2958 RMK AO2
K7BM 182112Z AUTO 26023G56KT 230V300 10SM CLR 08/M17 A2960 RMK AO2
K7BM 182053Z AUTO 27029G50KT 240V310 10SM CLR 07/M18 A2962 RMK AO2
K7BM 182029Z AUTO 26023G51KT 240V330 10SM CLR 07/M17 A2963 RMK AO2
K7BM 182012Z AUTO 27023G49KT 10SM CLR 07/M18 A2963 RMK AO2
K7BM 181953Z AUTO 26019G48KT 230V310 10SM CLR 07/M17 A2963 RMK AO2
K7BM 181929Z AUTO 27030G51KT 230V300 10SM CLR 07/M17 A2966 RMK AO2
K7BM 181912Z AUTO 25032G53KT 10SM CLR 07/M17 A2967 RMK AO2
K7BM 181848Z AUTO 26026G48KT 220V280 10SM CLR 07/M18 A2968 RMK AO2
K7BM 181830Z AUTO 26028G43KT 230V290 10SM CLR 07/M17 A2970 RMK AO2
K7BM 181812Z AUTO 26028G46KT 10SM CLR 06/M17 A2970 RMK AO2
K7BM 181753Z AUTO 25028G48KT 240V300 10SM CLR 06/M17 A2969 RMK AO2
K7BM 181730Z AUTO 25034G50KT 10SM CLR 06/M17 A2970 RMK AO2
K7BM 181712Z AUTO 26021G40KT 240V310 10SM CLR 06/M18 A2971 RMK AO2
K7BM 181651Z AUTO 27016G39KT 230V310 10SM CLR 06/M19 A2972 RMK AO2
K7BM 181628Z AUTO 26026G39KT 210V310 10SM CLR 05/M19 A2973 RMK AO2
K7BM 181611Z AUTO 26018G31KT 200V290 10SM CLR 05/M18 A2974 RMK AO2
K7BM 181553Z AUTO 28015G32KT 230V300 10SM CLR 04/M18 A2975 RMK AO2
K7BM 181529Z AUTO 27019G28KT 240V340 10SM CLR 04/M19 A2977 RMK AO2
K7BM 181512Z AUTO 28015G39KT 220V340 10SM CLR 04/M20 A2977 RMK AO2
K7BM 181452Z AUTO 24020G32KT 10SM CLR 03/M20 A2978 RMK AO2
K7BM 181429Z AUTO 27017G37KT 230V310 10SM CLR 03/M20 A2978 RMK AO2
K7BM 181411Z AUTO 27017G28KT 230V310 10SM CLR 03/M20 A2978 RMK AO2
K7BM 181353Z AUTO 23007G21KT 170V280 10SM CLR 02/M18 A2981 RMK AO2